Aérodrome :
LOGIN :

S'inscrire | Disclaimer

   EN    FR    IT 

 










Légende :    VFR   VFR Marginal   IFR   IFR Intensif   IFR Très Intensif
Visi : 
Plafond : 
>= 8 km
>= 3000ft
5 à 8 km
1000 à 3000 ft
1500m à 5 km
500 à 1000 ft
800 à 1500m
200 à 500 ft
< 800m
< 200 ft
Symboles :   Orages  Brouillard  Fortes neiges  Fortes précipitations  Vent > 20 kt
SIGMETs :   Divers  Orages  Givrage  Turbulence  Onde Orograph.  Cendres Volcan.







- Altitude de l'aérodrome : 74 ft
- Code IATA : LRH
- Voir les cartes d'approche


LFBH - La Rochelle Ile de Ré

DERNIER METAR :
  • 271400Z AUTO 29017KT CAVOK 18/13 Q1014 TEMPO 30020G30KT

METARs EXPIRÉS :
  • 271330Z AUTO 29018KT 9999 FEW027 18/13 Q1014 TEMPO 30020G30KT
  • 271300Z AUTO 30020KT CAVOK 18/14 Q1014 TEMPO 30020G30KT
  • 271230Z AUTO 30018KT CAVOK 18/14 Q1014 TEMPO 30020G30KT
  • 271200Z AUTO 30017KT CAVOK 18/15 Q1015 NOSIG
  • 271130Z AUTO 29014KT CAVOK 18/14 Q1015 NOSIG

TAF TAF LFBH
Valide du 27 à 12h jusqu'au 28 à 12h UTC


271100Z 2712/2812 30015KT 9999 BKN030
TEMPO 2712/2716 -SHRA
PROB40 2714/2720 30020G30KT
TEMPO 2808/2812 28015G25KT SHRA BKN030TCU
ATIS : +33 5 46 00 13 92
Pas de NOTAMs connus pour ce terrain.



MET'MAP, la Météo Aéronautique d'un coup d'oeil ! - Copyright ORBIFLY Décembre 2007 - Disclaimer

ORBIFLY MET'MAP TEAM :

Programmation & Développement : Alexandra Zaïnal
Conception & Développement : Baudouin d'Aumeries
Co-Programmation & Développement : Marc-Olivier Méhu
Soutien technique & logistique : Manuel Goepfert

Contact : metmap@orbifly.com




SOURCES & CREDITS :

   NOAA